Time;durP1;ratioP1;P1;durP2;ratioP2;P2;SDS_P1;SDS_P2;PMS_P1;PMS_P2;Temp;Humidity;BMP_temperature;BMP_pressure;BME280_temperature;BME280_humidity;BME280_pressure;Samples;Min_cycle;Max_cycle;Signal;HPM_P1;HPM_P2
2021/06/27 00:01:22;;;;;;;0.20;0.20;;;17.00;87.20;;;;;;5039144;28;20028;-78
2021/06/27 00:03:49;;;;;;;0.57;0.40;;;17.00;87.50;;;;;;5028137;28;20033;-78
2021/06/27 00:06:15;;;;;;;0.50;0.30;;;17.00;87.30;;;;;;5037841;28;20495;-78
2021/06/27 00:08:41;;;;;;;0.40;0.30;;;17.00;87.90;;;;;;5034886;28;20037;-78
2021/06/27 00:11:11;;;;;;;0.55;0.30;;;17.00;86.90;;;;;;5035192;28;20021;-78
2021/06/27 00:13:39;;;;;;;0.30;0.30;;;17.00;88.00;;;;;;5035094;28;20030;-78
2021/06/27 00:16:06;;;;;;;0.68;0.30;;;17.10;88.10;;;;;;5034102;28;20029;-78
2021/06/27 00:18:32;;;;;;;0.40;0.30;;;17.10;87.10;;;;;;5041035;28;20036;-78
2021/06/27 00:21:01;;;;;;;0.30;0.30;;;17.00;88.10;;;;;;5041884;28;20033;-78
2021/06/27 00:23:30;;;;;;;0.50;0.40;;;17.10;87.90;;;;;;5035990;28;20025;-78
2021/06/27 00:25:58;;;;;;;0.50;0.30;;;17.10;87.70;;;;;;5024070;28;20114;-78
2021/06/27 00:28:24;;;;;;;0.40;0.30;;;17.10;87.00;;;;;;5035052;28;20538;-78
2021/06/27 00:30:53;;;;;;;0.32;0.30;;;17.10;87.80;;;;;;5034402;28;20155;-78
2021/06/27 00:33:21;;;;;;;0.60;0.38;;;17.10;87.70;;;;;;5017067;28;20029;-78
2021/06/27 00:35:48;;;;;;;0.57;0.30;;;17.10;87.40;;;;;;5026360;28;20473;-79
2021/06/27 00:38:14;;;;;;;0.50;0.30;;;17.00;87.40;;;;;;5034540;28;20025;-78
2021/06/27 00:40:40;;;;;;;0.60;0.40;;;17.00;87.50;;;;;;5017277;28;20030;-78
2021/06/27 00:43:07;;;;;;;0.40;0.30;;;17.00;87.50;;;;;;5034726;28;20499;-78
2021/06/27 00:45:33;;;;;;;0.40;0.30;;;17.00;87.70;;;;;;5028871;28;20711;-78
2021/06/27 00:48:00;;;;;;;0.50;0.43;;;17.00;87.50;;;;;;5042131;28;20037;-78
2021/06/27 00:50:41;;;;;;;0.30;0.30;;;17.00;88.10;;;;;;5041397;28;20061;-78
2021/06/27 00:53:08;;;;;;;0.60;0.40;;;17.00;87.60;;;;;;5033818;28;20029;-79
2021/06/27 00:55:34;;;;;;;1.23;0.45;;;17.00;88.10;;;;;;5029219;28;20128;-78
2021/06/27 00:58:00;;;;;;;0.65;0.40;;;17.10;87.80;;;;;;5052973;28;20037;-78
2021/06/27 01:00:28;;;;;;;0.60;0.40;;;17.10;87.80;;;;;;5034392;28;20037;-78
2021/06/27 01:02:55;;;;;;;0.70;0.30;;;17.00;87.60;;;;;;5045333;28;20108;-78
2021/06/27 01:05:27;;;;;;;0.73;0.40;;;17.10;87.70;;;;;;5028966;28;20029;-78
2021/06/27 01:07:53;;;;;;;0.68;0.38;;;17.00;88.00;;;;;;5058239;28;20032;-78
2021/06/27 01:10:19;;;;;;;0.60;0.40;;;17.00;88.00;;;;;;5039910;28;20029;-78
2021/06/27 01:12:45;;;;;;;0.50;0.40;;;16.90;87.90;;;;;;5046895;28;20044;-78
2021/06/27 01:15:13;;;;;;;0.50;0.40;;;16.90;87.80;;;;;;5038280;28;20033;-78
2021/06/27 01:17:40;;;;;;;0.40;0.30;;;16.90;88.10;;;;;;5020088;28;20040;-78
2021/06/27 01:20:20;;;;;;;0.45;0.30;;;16.80;87.80;;;;;;5031653;28;20029;-78
2021/06/27 01:22:47;;;;;;;;;;;16.80;87.10;;;;;;5047515;28;20017;-78
2021/06/27 01:25:22;;;;;;;0.60;0.40;;;16.80;88.00;;;;;;5057015;28;19912;-78
2021/06/27 01:27:48;;;;;;;0.57;0.40;;;16.80;87.00;;;;;;5030866;28;20021;-78
2021/06/27 01:30:15;;;;;;;0.40;0.30;;;16.90;87.70;;;;;;5039374;28;20025;-78
2021/06/27 01:32:43;;;;;;;0.50;0.40;;;16.80;86.10;;;;;;5056812;28;20513;-78
2021/06/27 01:35:14;;;;;;;0.45;0.30;;;16.80;86.60;;;;;;5044163;28;20033;-79
2021/06/27 01:37:41;;;;;;;0.55;0.35;;;16.80;87.40;;;;;;5034111;28;20025;-78
2021/06/27 01:40:08;;;;;;;0.50;0.32;;;16.70;87.40;;;;;;5056844;28;20024;-78
2021/06/27 01:42:34;;;;;;;0.40;0.30;;;16.80;88.00;;;;;;5032467;28;20040;-78
2021/06/27 01:45:08;;;;;;;0.55;0.40;;;16.80;88.00;;;;;;5056966;28;20037;-78
2021/06/27 01:47:36;;;;;;;0.50;0.38;;;16.80;87.20;;;;;;5039320;28;20024;-78
2021/06/27 01:50:04;;;;;;;0.52;0.43;;;16.70;86.70;;;;;;5024607;28;20029;-78
2021/06/27 01:52:30;;;;;;;0.68;0.50;;;16.70;87.10;;;;;;5039774;28;20030;-78
2021/06/27 01:54:56;;;;;;;1.08;0.40;;;16.70;87.80;;;;;;5056498;28;20411;-78
2021/06/27 01:57:22;;;;;;;0.55;0.30;;;16.80;88.20;;;;;;5056444;28;20021;-79
2021/06/27 01:59:49;;;;;;;0.38;0.32;;;16.80;88.10;;;;;;5055347;28;20583;-78
2021/06/27 02:02:16;;;;;;;0.43;0.32;;;16.80;87.70;;;;;;5039032;28;20098;-78
2021/06/27 02:04:48;;;;;;;0.60;0.40;;;16.80;87.50;;;;;;5056390;28;20075;-78
2021/06/27 02:07:14;;;;;;;0.50;0.40;;;16.80;87.90;;;;;;5053919;28;20438;-79
2021/06/27 02:09:43;;;;;;;0.50;0.40;;;16.80;87.80;;;;;;5057101;28;20082;-79
2021/06/27 02:12:10;;;;;;;0.57;0.50;;;16.80;88.20;;;;;;5038991;28;20679;-79
2021/06/27 02:14:38;;;;;;;0.40;0.30;;;16.80;87.60;;;;;;5025472;28;20069;-78
2021/06/27 02:17:04;;;;;;;0.68;0.38;;;16.80;87.50;;;;;;5036633;28;20026;-78
2021/06/27 02:19:31;;;;;;;0.50;0.40;;;16.80;88.10;;;;;;5019146;28;20040;-78
2021/06/27 02:21:57;;;;;;;0.60;0.40;;;16.80;87.50;;;;;;5018693;28;20025;-78
2021/06/27 02:24:22;;;;;;;0.80;0.40;;;16.80;86.80;;;;;;5044053;28;20104;-78
2021/06/27 02:26:48;;;;;;;0.63;0.40;;;16.80;87.30;;;;;;5052741;28;20025;-78
2021/06/27 02:29:13;;;;;;;0.50;0.40;;;16.80;87.70;;;;;;5031994;28;20087;-78
2021/06/27 02:31:39;;;;;;;0.45;0.30;;;16.70;87.70;;;;;;5025647;28;20483;-78
2021/06/27 02:34:05;;;;;;;0.52;0.40;;;16.80;88.10;;;;;;5037344;28;20036;-78
2021/06/27 02:36:31;;;;;;;0.50;0.40;;;16.80;87.90;;;;;;5054475;28;20021;-78
2021/06/27 02:38:59;;;;;;;0.60;0.40;;;16.80;87.70;;;;;;5038323;28;20032;-78
2021/06/27 02:41:25;;;;;;;0.93;0.40;;;16.80;87.60;;;;;;5044814;28;20033;-78
2021/06/27 02:43:51;;;;;;;0.90;0.40;;;16.80;87.80;;;;;;5035046;28;20082;-78
2021/06/27 02:46:17;;;;;;;0.40;0.30;;;16.70;86.80;;;;;;5023682;28;20085;-78
2021/06/27 02:48:42;;;;;;;0.50;0.40;;;16.70;88.00;;;;;;5036849;28;20486;-78
2021/06/27 02:51:08;;;;;;;0.50;0.40;;;16.70;87.30;;;;;;5034921;28;20033;-78
2021/06/27 02:53:34;;;;;;;0.30;0.30;;;16.60;87.40;;;;;;5050378;28;20516;-78
2021/06/27 02:56:08;;;;;;;0.40;0.30;;;16.50;85.90;;;;;;5037411;28;20039;-78
2021/06/27 02:58:36;;;;;;;0.43;0.30;;;16.40;87.20;;;;;;5032041;28;20506;-78
2021/06/27 03:01:02;;;;;;;0.30;0.30;;;16.40;87.90;;;;;;5035875;28;20026;-78
2021/06/27 03:03:28;;;;;;;0.52;0.30;;;16.40;87.80;;;;;;5030768;28;20495;-78
2021/06/27 03:05:54;;;;;;;0.40;0.30;;;16.40;87.80;;;;;;5056054;28;20090;-78
2021/06/27 03:08:19;;;;;;;0.40;0.30;;;16.50;88.30;;;;;;5053897;28;20021;-78
2021/06/27 03:10:45;;;;;;;0.60;0.30;;;16.50;88.30;;;;;;5055923;28;20033;-78
2021/06/27 03:13:13;;;;;;;0.32;0.30;;;16.50;88.00;;;;;;5038515;28;20033;-78
2021/06/27 03:15:38;;;;;;;0.60;0.38;;;16.60;87.40;;;;;;5017867;28;20040;-78
2021/06/27 03:18:04;;;;;;;0.40;0.30;;;16.60;86.60;;;;;;5034226;28;20025;-78
2021/06/27 03:20:30;;;;;;;0.35;0.30;;;16.50;87.70;;;;;;5053393;28;20033;-78
2021/06/27 03:22:56;;;;;;;0.40;0.30;;;16.50;87.60;;;;;;5037282;28;20021;-79
2021/06/27 03:25:25;;;;;;;0.40;0.30;;;16.40;87.20;;;;;;5055533;28;20028;-78
2021/06/27 03:27:52;;;;;;;0.68;0.28;;;16.40;87.30;;;;;;5040613;28;20040;-78
2021/06/27 03:30:18;;;;;;;0.60;0.40;;;16.40;86.70;;;;;;5035506;28;20034;-79
2021/06/27 03:32:44;;;;;;;0.32;0.30;;;16.30;87.10;;;;;;5021201;28;20477;-78
2021/06/27 03:35:11;;;;;;;0.63;0.30;;;16.30;87.80;;;;;;5032665;28;20403;-78
2021/06/27 03:37:39;;;;;;;0.32;0.30;;;16.30;87.10;;;;;;5034581;28;20525;-78
2021/06/27 03:40:06;;;;;;;0.40;0.30;;;16.30;87.70;;;;;;5031118;28;20128;-78
2021/06/27 03:42:31;;;;;;;0.38;0.30;;;16.30;88.00;;;;;;5017470;28;20430;-79
2021/06/27 03:44:57;;;;;;;0.30;0.30;;;16.20;87.90;;;;;;5042295;28;20056;-79
2021/06/27 03:47:26;;;;;;;0.52;0.30;;;16.20;88.10;;;;;;5028608;28;20398;-78
2021/06/27 03:49:52;;;;;;;0.32;0.30;;;16.10;87.10;;;;;;5017553;28;20132;-78
2021/06/27 03:52:18;;;;;;;0.82;0.40;;;16.10;87.20;;;;;;5036059;28;20029;-78
2021/06/27 03:54:44;;;;;;;0.40;0.30;;;16.00;87.70;;;;;;5037717;28;20030;-79
2021/06/27 03:57:10;;;;;;;0.50;0.30;;;16.00;87.90;;;;;;5034674;28;20386;-78
2021/06/27 03:59:35;;;;;;;0.60;0.35;;;16.00;87.00;;;;;;5052505;28;20807;-78
2021/06/27 04:02:01;;;;;;;0.43;0.30;;;15.90;87.80;;;;;;5036475;28;20021;-78
2021/06/27 04:04:27;;;;;;;0.30;0.20;;;15.90;87.70;;;;;;5044572;28;20026;-78
2021/06/27 04:06:52;;;;;;;0.38;0.30;;;15.90;87.80;;;;;;5017423;28;20037;-79
2021/06/27 04:09:18;;;;;;;1.08;0.38;;;15.90;87.10;;;;;;5035300;28;20031;-78
2021/06/27 04:11:44;;;;;;;0.47;0.30;;;15.80;85.90;;;;;;5050528;28;20075;-78
2021/06/27 04:14:09;;;;;;;1.40;0.60;;;15.70;86.30;;;;;;5033010;28;20040;-77
2021/06/27 04:16:35;;;;;;;2.47;0.82;;;15.70;86.80;;;;;;5054748;28;20104;-78
2021/06/27 04:19:00;;;;;;;1.90;0.70;;;15.60;86.70;;;;;;5055084;28;20021;-78
2021/06/27 04:21:26;;;;;;;1.50;0.52;;;15.50;87.50;;;;;;5054537;28;20035;-78
2021/06/27 04:23:52;;;;;;;2.25;0.57;;;15.70;87.80;;;;;;5040736;28;20040;-78
2021/06/27 04:26:18;;;;;;;2.90;0.75;;;15.70;87.90;;;;;;5034917;28;20025;-79
2021/06/27 04:28:43;;;;;;;2.03;0.75;;;15.80;87.60;;;;;;5041494;28;20192;-78
2021/06/27 04:31:09;;;;;;;1.08;0.57;;;15.80;87.70;;;;;;5034776;28;20029;-78
2021/06/27 04:33:35;;;;;;;2.17;0.60;;;15.80;87.90;;;;;;5017749;28;20045;-78
2021/06/27 04:36:01;;;;;;;2.13;0.65;;;15.80;87.10;;;;;;5033665;28;20466;-78
2021/06/27 04:38:26;;;;;;;2.20;0.65;;;15.90;87.50;;;;;;5017159;28;20566;-78
2021/06/27 04:40:53;;;;;;;2.20;0.65;;;15.90;87.70;;;;;;5038709;28;20028;-78
2021/06/27 04:43:19;;;;;;;1.67;0.65;;;15.90;87.30;;;;;;5044046;28;20429;-78
2021/06/27 04:45:45;;;;;;;2.03;0.65;;;15.90;87.20;;;;;;5038661;28;20044;-78
2021/06/27 04:48:10;;;;;;;2.10;0.68;;;16.00;87.40;;;;;;5057727;28;20079;-78
2021/06/27 04:50:37;;;;;;;1.33;0.60;;;16.00;87.70;;;;;;5040444;28;20036;-78
2021/06/27 04:53:04;;;;;;;0.90;0.40;;;16.10;87.70;;;;;;5053067;28;20033;-78
2021/06/27 04:55:29;;;;;;;1.25;0.50;;;16.20;88.00;;;;;;5058053;28;20017;-78
2021/06/27 04:57:55;;;;;;;0.90;0.40;;;16.20;87.10;;;;;;5039399;28;20032;-79
2021/06/27 05:00:21;;;;;;;0.85;0.52;;;16.10;86.80;;;;;;5056685;28;20691;-78
2021/06/27 05:02:47;;;;;;;0.60;0.45;;;16.20;87.70;;;;;;5034496;28;20506;-79
2021/06/27 05:05:13;;;;;;;0.98;0.50;;;16.20;87.40;;;;;;5038317;28;20025;-78
2021/06/27 05:07:38;;;;;;;0.95;0.50;;;16.20;86.50;;;;;;5036929;28;20026;-78
2021/06/27 05:10:06;;;;;;;0.88;0.50;;;16.20;87.50;;;;;;5053986;28;20079;-78
2021/06/27 05:12:33;;;;;;;1.27;0.55;;;16.20;87.50;;;;;;5056831;28;20036;-78
2021/06/27 05:14:59;;;;;;;1.30;0.55;;;16.20;86.90;;;;;;5039866;28;20025;-78
2021/06/27 05:17:24;;;;;;;1.05;0.60;;;16.20;87.20;;;;;;5036939;28;20487;-84
2021/06/27 05:19:50;;;;;;;1.23;0.47;;;16.30;87.30;;;;;;5039189;28;20028;-80
2021/06/27 05:22:16;;;;;;;1.13;0.50;;;16.30;87.50;;;;;;5036501;28;20029;-82
2021/06/27 05:24:42;;;;;;;1.05;0.50;;;16.30;87.60;;;;;;5037706;28;20025;-82
2021/06/27 05:27:07;;;;;;;0.80;0.60;;;16.30;87.60;;;;;;5056723;28;20021;-83
2021/06/27 05:29:34;;;;;;;1.10;0.50;;;16.30;87.60;;;;;;5038388;28;20025;-83
2021/06/27 05:32:00;;;;;;;1.02;0.60;;;16.40;87.20;;;;;;5050791;28;20500;-83
2021/06/27 05:34:29;;;;;;;1.70;0.70;;;16.30;87.00;;;;;;5039433;28;20105;-83
2021/06/27 05:36:54;;;;;;;1.00;0.60;;;16.40;87.50;;;;;;5049182;28;20064;-82
2021/06/27 05:39:21;;;;;;;1.40;0.60;;;16.50;87.00;;;;;;5057077;28;20025;-83
2021/06/27 05:41:46;;;;;;;1.60;0.60;;;16.40;87.20;;;;;;5039142;28;20175;-81
2021/06/27 05:44:12;;;;;;;1.77;0.60;;;16.40;86.80;;;;;;5030128;28;20112;-92
2021/06/27 05:46:38;;;;;;;1.55;0.50;;;16.40;87.20;;;;;;5036801;28;20098;-82
2021/06/27 05:49:05;;;;;;;1.45;0.55;;;16.40;87.40;;;;;;5047375;28;20034;-82
2021/06/27 05:51:37;;;;;;;3.03;0.93;;;16.50;87.20;;;;;;5036272;28;20030;-83
2021/06/27 05:54:06;;;;;;;2.47;0.80;;;16.50;86.70;;;;;;5021454;28;20029;-83
2021/06/27 05:56:33;;;;;;;2.17;0.70;;;16.50;86.60;;;;;;5039293;28;20029;-82
2021/06/27 05:58:58;;;;;;;1.50;0.52;;;16.60;87.20;;;;;;5045216;28;20147;-82
2021/06/27 06:01:24;;;;;;;2.15;0.70;;;16.70;87.30;;;;;;5044846;28;20056;-82
2021/06/27 06:03:50;;;;;;;1.38;0.70;;;16.80;86.50;;;;;;5029495;28;20025;-87
2021/06/27 06:06:16;;;;;;;1.65;0.70;;;17.00;86.20;;;;;;5041498;28;20037;-83
2021/06/27 06:08:42;;;;;;;1.50;0.50;;;17.10;86.20;;;;;;5054791;28;20033;-79
2021/06/27 06:11:13;;;;;;;0.73;0.40;;;17.20;85.70;;;;;;5047475;28;20130;-79
2021/06/27 06:13:41;;;;;;;1.23;0.40;;;17.30;85.30;;;;;;5041806;28;20708;-81
2021/06/27 06:16:07;;;;;;;0.60;0.40;;;17.30;84.70;;;;;;5030867;28;20462;-80
2021/06/27 06:18:35;;;;;;;0.52;0.40;;;17.30;84.70;;;;;;5037121;28;20433;-81
2021/06/27 06:21:00;;;;;;;0.50;0.43;;;17.20;85.00;;;;;;5035957;28;20056;-81
2021/06/27 06:23:27;;;;;;;0.50;0.40;;;17.30;85.40;;;;;;5042592;28;20028;-81
2021/06/27 06:25:53;;;;;;;0.57;0.40;;;17.20;84.10;;;;;;5033746;28;20511;-81
2021/06/27 06:28:19;;;;;;;0.63;0.40;;;17.20;84.80;;;;;;5049129;28;20097;-80
2021/06/27 06:30:45;;;;;;;0.68;0.40;;;17.30;85.40;;;;;;5038140;28;20131;-80
2021/06/27 06:33:11;;;;;;;0.40;0.30;;;17.60;85.70;;;;;;5033331;28;20097;-79
2021/06/27 06:35:42;;;;;;;0.43;0.30;;;17.90;84.60;;;;;;5032462;28;20009;-81
2021/06/27 06:38:08;;;;;;;0.50;0.35;;;18.00;83.40;;;;;;5039826;28;20550;-81
2021/06/27 06:40:34;;;;;;;0.35;0.30;;;18.30;83.30;;;;;;5036531;28;20063;-80
2021/06/27 06:43:01;;;;;;;0.40;0.30;;;18.40;82.40;;;;;;5034873;28;20179;-81
2021/06/27 06:45:27;;;;;;;0.40;0.30;;;18.30;82.20;;;;;;5054164;28;20519;-83
2021/06/27 06:47:54;;;;;;;0.40;0.30;;;18.40;81.90;;;;;;5033649;28;20037;-86
2021/06/27 06:50:20;;;;;;;0.50;0.30;;;18.80;81.90;;;;;;5033189;28;20404;-80
2021/06/27 06:52:47;;;;;;;0.20;0.20;;;19.20;80.80;;;;;;5053315;28;20060;-81
2021/06/27 06:55:12;;;;;;;0.32;0.20;;;19.20;80.10;;;;;;5036153;28;20029;-82
2021/06/27 06:57:38;;;;;;;0.50;0.30;;;19.40;78.50;;;;;;5049742;28;20398;-83
2021/06/27 07:00:06;;;;;;;0.20;0.20;;;19.40;77.70;;;;;;5062366;28;20025;-91
2021/06/27 07:02:31;;;;;;;0.40;0.28;;;19.60;77.30;;;;;;5051799;28;20033;-84
2021/06/27 07:04:57;;;;;;;0.30;0.20;;;19.70;79.30;;;;;;5054285;28;20035;-81
2021/06/27 07:07:23;;;;;;;0.30;0.20;;;19.40;79.50;;;;;;5058247;28;20024;-83
2021/06/27 07:09:48;;;;;;;0.28;0.20;;;19.10;79.40;;;;;;5033496;28;20112;-82
2021/06/27 07:12:14;;;;;;;0.30;0.20;;;18.80;81.20;;;;;;5038008;28;20604;-87
2021/06/27 07:14:40;;;;;;;0.20;0.20;;;18.90;80.30;;;;;;5034381;28;20024;-82
2021/06/27 07:17:06;;;;;;;0.47;0.30;;;19.00;80.70;;;;;;5050544;28;20044;-85
2021/06/27 07:19:31;;;;;;;0.20;0.20;;;19.70;78.90;;;;;;5054996;28;20092;-84
2021/06/27 07:21:57;;;;;;;0.13;0.10;;;19.80;77.70;;;;;;5054355;28;20045;-83
2021/06/27 07:24:23;;;;;;;0.20;0.20;;;19.80;76.60;;;;;;5032820;28;20109;-85
2021/06/27 07:26:48;;;;;;;0.30;0.20;;;19.60;77.00;;;;;;5036835;28;20029;-84
2021/06/27 07:29:14;;;;;;;0.20;0.10;;;19.50;77.90;;;;;;5071164;28;20028;-83
2021/06/27 07:31:41;;;;;;;0.20;0.20;;;19.60;77.00;;;;;;5071285;28;20105;-84
2021/06/27 07:34:06;;;;;;;0.20;0.20;;;19.70;77.10;;;;;;5030705;28;20017;-84
2021/06/27 07:36:32;;;;;;;0.30;0.20;;;20.00;76.10;;;;;;5039441;28;20029;-82
2021/06/27 07:38:58;;;;;;;0.20;0.20;;;20.20;75.40;;;;;;5042465;28;21421;-82
2021/06/27 07:41:23;;;;;;;0.30;0.10;;;20.50;75.90;;;;;;5049181;28;20144;-82
2021/06/27 07:43:50;;;;;;;0.10;0.10;;;20.80;73.40;;;;;;5060827;28;20365;-82
2021/06/27 07:46:17;;;;;;;0.25;0.20;;;20.60;74.60;;;;;;5032051;28;20068;-92
2021/06/27 07:48:42;;;;;;;0.20;0.20;;;20.60;72.80;;;;;;5044828;28;20410;-84
2021/06/27 07:51:09;;;;;;;0.10;0.10;;;21.60;72.10;;;;;;5050737;28;20029;-83
2021/06/27 07:53:35;;;;;;;0.10;0.10;;;21.50;69.90;;;;;;5042967;28;20021;-83
2021/06/27 07:56:00;;;;;;;0.13;0.10;;;21.30;71.10;;;;;;5055949;28;20109;-85
2021/06/27 07:58:26;;;;;;;0.30;0.10;;;22.00;70.90;;;;;;5035049;28;20025;-84
2021/06/27 08:00:52;;;;;;;0.43;0.25;;;22.50;70.00;;;;;;5037025;28;20495;-90
2021/06/27 08:03:17;;;;;;;0.20;0.20;;;24.40;64.20;;;;;;5051252;28;20183;-82
2021/06/27 08:05:43;;;;;;;0.00;0.00;;;26.50;56.00;;;;;;5027004;28;20089;-89
2021/06/27 08:08:09;;;;;;;0.05;0.00;;;27.30;53.20;;;;;;5065106;28;20035;-78
2021/06/27 08:10:34;;;;;;;0.10;0.10;;;26.20;53.80;;;;;;5046666;28;20110;-82
2021/06/27 08:13:01;;;;;;;0.00;0.00;;;26.70;54.90;;;;;;5036769;28;20585;-78
2021/06/27 08:15:27;;;;;;;0.00;0.00;;;26.30;50.30;;;;;;5054837;28;20399;-76
2021/06/27 08:17:52;;;;;;;0.13;0.08;;;25.10;56.20;;;;;;5049961;28;20027;-76
2021/06/27 08:20:21;;;;;;;0.00;0.00;;;24.40;59.70;;;;;;5041509;28;20028;-76
2021/06/27 08:22:50;;;;;;;0.10;0.00;;;23.60;60.40;;;;;;5054905;28;20116;-76
2021/06/27 08:25:16;;;;;;;0.00;0.00;;;23.00;62.60;;;;;;5051454;28;20112;-76
2021/06/27 08:27:42;;;;;;;0.00;0.00;;;22.70;64.90;;;;;;5059979;28;20067;-76
2021/06/27 08:30:10;;;;;;;0.10;0.10;;;22.30;67.30;;;;;;5059877;28;20050;-76
2021/06/27 08:32:42;;;;;;;0.20;0.17;;;22.30;67.70;;;;;;5052815;28;20034;-76
2021/06/27 08:35:08;;;;;;;0.10;0.10;;;23.00;67.70;;;;;;5057428;28;20040;-76
2021/06/27 08:37:34;;;;;;;0.10;0.10;;;23.70;62.50;;;;;;5030416;28;20088;-76
2021/06/27 08:39:59;;;;;;;0.30;0.10;;;23.30;61.70;;;;;;5057796;28;20487;-77
2021/06/27 08:42:25;;;;;;;0.10;0.10;;;23.10;62.50;;;;;;5051972;28;20081;-76
2021/06/27 08:44:51;;;;;;;0.00;0.00;;;23.00;63.60;;;;;;5047485;28;20027;-77
2021/06/27 08:47:18;;;;;;;0.10;0.10;;;22.80;64.70;;;;;;5057893;28;20080;-77
2021/06/27 08:49:51;;;;;;;0.05;0.03;;;22.40;66.40;;;;;;5047511;28;20051;-76
2021/06/27 08:52:18;;;;;;;0.10;0.10;;;22.20;68.70;;;;;;5057587;28;20075;-78
2021/06/27 08:54:47;;;;;;;0.10;0.10;;;22.20;68.30;;;;;;5057877;28;20335;-75
2021/06/27 08:57:14;;;;;;;0.10;0.10;;;22.10;68.30;;;;;;5054010;28;20029;-77
2021/06/27 08:59:40;;;;;;;0.10;0.10;;;21.80;66.40;;;;;;5048867;28;20079;-83
2021/06/27 09:02:08;;;;;;;0.10;0.10;;;21.80;66.90;;;;;;5055583;28;20112;-78
2021/06/27 09:04:41;;;;;;;0.10;0.10;;;21.70;68.10;;;;;;5054203;28;20047;-80
2021/06/27 09:07:29;;;;;;;0.10;0.10;;;21.70;67.40;;;;;;5037422;28;20044;-79
2021/06/27 09:10:07;;;;;;;0.10;0.10;;;21.60;68.50;;;;;;5056181;28;20021;-81
2021/06/27 09:13:01;;;;;;;0.10;0.10;;;21.60;68.10;;;;;;5054277;28;20020;-75
2021/06/27 09:15:45;;;;;;;0.10;0.10;;;21.60;69.20;;;;;;5051704;28;20067;-88
2021/06/27 09:18:13;;;;;;;0.08;0.05;;;21.70;69.10;;;;;;5051748;28;20036;-77
2021/06/27 09:20:41;;;;;;;0.10;0.10;;;21.30;68.20;;;;;;5049579;28;20036;-76
2021/06/27 09:23:08;;;;;;;0.10;0.10;;;21.10;67.70;;;;;;5050001;28;20479;-80
2021/06/27 09:25:34;;;;;;;0.30;0.10;;;20.80;67.10;;;;;;5037153;28;20021;-79
2021/06/27 09:28:14;;;;;;;0.10;0.10;;;20.80;69.00;;;;;;5055294;28;20608;-80
2021/06/27 09:30:51;;;;;;;0.10;0.10;;;20.90;68.10;;;;;;5057573;28;20087;-78
2021/06/27 09:33:29;;;;;;;0.20;0.10;;;20.70;69.00;;;;;;5039544;28;20399;-84
2021/06/27 09:36:05;;;;;;;0.10;0.10;;;20.60;67.70;;;;;;5053578;28;20032;-82
2021/06/27 09:38:46;;;;;;;0.20;0.10;;;20.70;70.00;;;;;;5058076;28;20119;-79
2021/06/27 09:41:24;;;;;;;0.10;0.10;;;20.80;70.80;;;;;;5059449;28;20027;-79
2021/06/27 09:44:13;;;;;;;0.10;0.10;;;20.80;69.80;;;;;;5056620;28;20028;-80
2021/06/27 09:46:40;;;;;;;0.28;0.10;;;20.80;69.40;;;;;;5052883;28;20037;-80
2021/06/27 09:49:07;;;;;;;0.10;0.10;;;21.10;69.80;;;;;;5044921;28;20037;-78
2021/06/27 09:51:34;;;;;;;0.10;0.10;;;21.00;68.40;;;;;;5057423;28;20104;-85
2021/06/27 09:54:00;;;;;;;0.10;0.10;;;21.00;70.60;;;;;;5062234;28;20129;-78
2021/06/27 09:56:27;;;;;;;0.10;0.10;;;20.80;71.70;;;;;;5064652;28;20068;-75
2021/06/27 09:59:14;;;;;;;0.10;0.10;;;20.80;71.50;;;;;;5053000;28;20029;-84
2021/06/27 10:01:41;;;;;;;0.10;0.10;;;20.50;71.80;;;;;;5056769;28;20074;-84
2021/06/27 10:04:09;;;;;;;0.10;0.10;;;20.50;72.80;;;;;;5055232;28;20033;-84
2021/06/27 10:06:47;;;;;;;0.10;0.10;;;20.60;70.90;;;;;;5055567;28;20025;-77
2021/06/27 10:09:17;;;;;;;0.10;0.10;;;20.50;71.40;;;;;;5054177;28;20108;-76
2021/06/27 10:12:10;;;;;;;0.10;0.10;;;20.40;71.90;;;;;;5033672;28;20029;-78
2021/06/27 10:14:49;;;;;;;0.10;0.10;;;20.60;70.80;;;;;;5064426;28;20056;-79
2021/06/27 10:17:15;;;;;;;0.10;0.10;;;20.80;71.30;;;;;;5035713;28;20029;-80
2021/06/27 10:19:41;;;;;;;0.10;0.10;;;20.80;70.40;;;;;;5044176;28;20036;-75
2021/06/27 10:22:07;;;;;;;0.13;0.10;;;20.90;69.90;;;;;;5055620;28;20032;-74
2021/06/27 10:24:33;;;;;;;0.10;0.10;;;20.90;69.90;;;;;;5049949;28;20081;-74
2021/06/27 10:26:59;;;;;;;0.20;0.20;;;21.20;70.10;;;;;;5051772;28;20029;-75
2021/06/27 10:29:25;;;;;;;0.30;0.30;;;21.70;68.10;;;;;;5036203;28;20044;-75
2021/06/27 10:31:54;;;;;;;0.05;0.03;;;22.60;66.80;;;;;;5060777;28;20026;-76
2021/06/27 10:34:21;;;;;;;0.10;0.10;;;23.20;63.70;;;;;;5051196;28;20542;-75
2021/06/27 10:36:53;;;;;;;0.10;0.00;;;24.00;61.30;;;;;;5060433;28;20626;-74
2021/06/27 10:39:20;;;;;;;0.10;0.10;;;24.50;60.40;;;;;;5043573;28;20629;-73
2021/06/27 10:42:00;;;;;;;0.00;0.00;;;24.70;60.10;;;;;;5056897;28;20031;-74
2021/06/27 10:44:36;;;;;;;0.03;0.03;;;24.60;58.10;;;;;;5073822;28;20017;-75
2021/06/27 10:47:02;;;;;;;0.10;0.10;;;24.30;60.80;;;;;;5054120;28;20036;-76
2021/06/27 10:49:31;;;;;;;0.10;0.10;;;24.40;59.80;;;;;;5066814;28;20028;-76
2021/06/27 10:51:58;;;;;;;0.10;0.10;;;24.10;60.00;;;;;;5035637;28;20028;-74
2021/06/27 10:54:24;;;;;;;0.10;0.10;;;23.30;62.30;;;;;;5036316;28;20036;-76
2021/06/27 10:56:55;;;;;;;0.00;0.00;;;23.20;62.70;;;;;;5056201;28;20017;-76
2021/06/27 10:59:39;;;;;;;0.00;0.00;;;23.20;62.40;;;;;;5068759;28;20024;-77
2021/06/27 11:02:42;;;;;;;0.05;0.05;;;23.20;62.50;;;;;;5070706;28;20083;-76
2021/06/27 11:05:27;;;;;;;0.10;0.10;;;23.30;64.00;;;;;;5054831;28;20028;-78
2021/06/27 11:07:54;;;;;;;0.10;0.10;;;23.30;61.80;;;;;;5056737;28;20039;-80
2021/06/27 11:10:28;;;;;;;0.13;0.10;;;23.10;61.40;;;;;;5057009;28;20059;-89
2021/06/27 11:13:03;;;;;;;0.10;0.10;;;22.70;64.20;;;;;;5041519;28;20036;-77
2021/06/27 11:15:32;;;;;;;0.10;0.10;;;22.50;64.90;;;;;;5054862;28;20028;-80
2021/06/27 11:18:08;;;;;;;0.08;0.08;;;22.80;64.60;;;;;;5050860;28;20041;-80
2021/06/27 11:20:35;;;;;;;0.00;0.00;;;23.30;63.70;;;;;;5052461;28;20040;-80
2021/06/27 11:23:01;;;;;;;0.10;0.10;;;23.00;62.70;;;;;;5054532;28;20074;-79
2021/06/27 11:25:35;;;;;;;0.10;0.10;;;23.10;62.30;;;;;;5053031;28;20655;-80
2021/06/27 11:28:34;;;;;;;0.00;0.00;;;23.00;60.90;;;;;;5053138;28;20064;-80
2021/06/27 11:31:22;;;;;;;0.00;0.00;;;23.00;64.00;;;;;;5010359;28;21040;-80
2021/06/27 11:34:20;;;;;;;0.00;0.00;;;22.90;62.90;;;;;;5051178;28;20032;-80
2021/06/27 11:36:49;;;;;;;0.17;0.10;;;22.80;62.40;;;;;;5050882;28;20101;-79
2021/06/27 11:39:43;;;;;;;0.00;0.00;;;22.70;62.80;;;;;;5034938;28;20033;-79
2021/06/27 11:42:27;;;;;;;0.00;0.00;;;22.40;62.30;;;;;;5034523;28;20040;-80
2021/06/27 11:45:16;;;;;;;0.00;0.00;;;22.40;64.10;;;;;;5059859;28;20108;-77
2021/06/27 11:47:43;;;;;;;0.10;0.10;;;22.40;63.70;;;;;;5029592;28;20116;-80
2021/06/27 11:50:19;;;;;;;0.00;0.00;;;22.80;61.30;;;;;;5044476;28;20525;-84
2021/06/27 11:52:51;;;;;;;0.00;0.00;;;23.20;62.50;;;;;;5070467;28;20017;-80
2021/06/27 11:55:18;;;;;;;0.10;0.10;;;23.30;60.50;;;;;;5062052;28;20107;-83
2021/06/27 11:57:44;;;;;;;0.00;0.00;;;23.40;59.50;;;;;;5058765;28;20044;-83
2021/06/27 12:00:12;;;;;;;0.10;0.10;;;23.70;59.50;;;;;;5039086;28;20031;-83
2021/06/27 12:02:38;;;;;;;0.20;0.05;;;23.60;60.80;;;;;;5032033;28;20036;-84
2021/06/27 12:05:13;;;;;;;0.00;0.00;;;23.70;60.20;;;;;;5030465;28;20017;-83
2021/06/27 12:07:43;;;;;;;0.10;0.10;;;23.40;60.40;;;;;;5042985;28;20506;-83
2021/06/27 12:10:21;;;;;;;0.05;0.05;;;23.00;60.20;;;;;;5068193;28;20029;-83
2021/06/27 12:12:52;;;;;;;0.00;0.00;;;22.60;61.90;;;;;;5030575;28;20037;-82
2021/06/27 12:15:17;;;;;;;0.00;0.00;;;22.00;64.50;;;;;;5071652;28;20501;-83
2021/06/27 12:17:49;;;;;;;0.10;0.10;;;21.50;70.40;;;;;;5074685;28;20032;-83
2021/06/27 12:20:16;;;;;;;0.10;0.10;;;20.80;71.00;;;;;;5060983;28;20107;-83
2021/06/27 12:22:55;;;;;;;0.03;0.03;;;20.80;73.00;;;;;;5058968;28;20539;-83
2021/06/27 12:25:33;;;;;;;0.10;0.10;;;20.80;73.50;;;;;;5059672;28;20231;-83
2021/06/27 12:28:03;;;;;;;0.20;0.10;;;20.90;72.20;;;;;;5069273;28;20374;-83
2021/06/27 12:30:50;;;;;;;0.10;0.10;;;21.20;71.10;;;;;;5036122;28;20045;-83
2021/06/27 12:33:24;;;;;;;0.10;0.10;;;21.40;71.60;;;;;;5033005;28;20533;-84
2021/06/27 12:35:58;;;;;;;0.10;0.10;;;21.50;71.80;;;;;;5027709;28;20021;-84
2021/06/27 12:38:25;;;;;;;0.00;0.00;;;21.40;71.50;;;;;;5060545;28;20514;-84
2021/06/27 12:40:53;;;;;;;0.10;0.10;;;21.00;73.70;;;;;;5036268;28;20406;-83
2021/06/27 12:43:29;;;;;;;0.10;0.10;;;20.80;74.10;;;;;;5035137;28;20059;-83
2021/06/27 12:46:34;;;;;;;0.10;0.10;;;20.80;75.40;;;;;;5052309;28;20052;-83
2021/06/27 12:49:00;;;;;;;0.00;0.00;;;20.80;75.30;;;;;;5045973;28;20139;-83
2021/06/27 12:51:30;;;;;;;0.00;0.00;;;20.50;75.40;;;;;;5069332;28;20110;-83
2021/06/27 12:54:07;;;;;;;0.10;0.10;;;20.10;76.70;;;;;;5039602;28;20066;-83
2021/06/27 12:56:57;;;;;;;0.10;0.10;;;19.80;77.90;;;;;;5046400;28;20078;-83